createdAt,value
2023-03-04T00:00:10.641Z,67.22
2023-03-04T00:02:46.269Z,67.42
2023-03-04T00:05:14.572Z,67.58
2023-03-04T00:07:44.869Z,67.38
2023-03-04T00:10:14.797Z,67.53
2023-03-04T00:12:46.151Z,67.73
2023-03-04T00:15:14.225Z,67.74
2023-03-04T00:17:46.211Z,67.89
2023-03-04T00:20:16.692Z,68.20
2023-03-04T00:22:47.987Z,68.34
2023-03-04T00:25:17.209Z,68.43
2023-03-04T00:27:47.396Z,68.29
2023-03-04T00:30:15.713Z,68.17
2023-03-04T00:32:44.605Z,68.10
2023-03-04T00:35:17.757Z,68.16
2023-03-04T00:37:45.925Z,68.21
2023-03-04T00:40:14.117Z,68.41
2023-03-04T00:42:43.314Z,68.38
2023-03-04T00:45:14.908Z,68.64
2023-03-04T00:47:48.823Z,68.65
2023-03-04T00:50:17.088Z,68.88
2023-03-04T00:52:45.350Z,68.67
2023-03-04T00:55:14.424Z,68.53
2023-03-04T00:57:43.320Z,68.68
2023-03-04T01:00:12.060Z,68.73
2023-03-04T01:02:41.094Z,68.62
2023-03-04T01:05:13.591Z,68.65
2023-03-04T01:07:42.357Z,68.83
2023-03-04T01:10:13.398Z,68.93
2023-03-04T01:12:46.071Z,68.99
2023-03-04T01:15:15.056Z,69.02
2023-03-04T01:17:44.489Z,69.08
2023-03-04T01:20:13.374Z,69.00
2023-03-04T01:22:41.540Z,69.19
2023-03-04T01:25:10.806Z,69.13
2023-03-04T01:27:57.939Z,69.32
2023-03-04T01:30:26.309Z,69.25
2023-03-04T01:32:54.759Z,69.15
2023-03-04T01:35:28.964Z,69.28
2023-03-04T01:37:58.632Z,69.43
2023-03-04T01:40:26.736Z,69.33
2023-03-04T01:42:56.523Z,69.38
2023-03-04T01:45:24.842Z,69.75
2023-03-04T01:47:53.978Z,69.77
2023-03-04T01:50:31.786Z,69.70
2023-03-04T01:53:01.144Z,69.68
2023-03-04T01:55:29.820Z,69.67
2023-03-04T01:57:58.358Z,69.78
2023-03-04T02:00:32.704Z,69.91
2023-03-04T02:03:08.045Z,69.75
2023-03-04T02:05:37.830Z,70.02
2023-03-04T02:08:06.361Z,70.21
2023-03-04T02:10:37.512Z,70.28
2023-03-04T02:13:07.031Z,70.35
2023-03-04T02:15:36.234Z,70.29
2023-03-04T02:18:16.559Z,70.28
2023-03-04T02:21:11.161Z,70.49
2023-03-04T02:23:53.177Z,70.30
2023-03-04T02:26:26.219Z,70.39
2023-03-04T02:28:55.537Z,70.56
2023-03-04T02:31:30.734Z,70.69
2023-03-04T02:34:06.881Z,70.55
2023-03-04T02:36:35.451Z,70.71
2023-03-04T02:39:23.447Z,70.64
2023-03-04T02:41:53.006Z,70.25
2023-03-04T02:44:27.198Z,70.28
2023-03-04T02:46:55.843Z,70.57
2023-03-04T02:49:25.810Z,70.47
2023-03-04T02:52:03.870Z,70.42
2023-03-04T02:54:33.498Z,70.54
2023-03-04T02:57:03.993Z,70.47
2023-03-04T02:59:32.986Z,70.59
2023-03-04T03:02:02.877Z,70.47
2023-03-04T03:04:31.507Z,70.66
2023-03-04T03:07:02.856Z,70.57
2023-03-04T03:09:32.439Z,70.42
2023-03-04T03:12:00.824Z,70.45
2023-03-04T03:14:29.968Z,70.27
2023-03-04T03:16:58.435Z,70.38
2023-03-04T03:19:28.421Z,70.24
2023-03-04T03:21:59.415Z,70.43
2023-03-04T03:24:29.731Z,70.74
2023-03-04T03:26:59.091Z,70.92
2023-03-04T03:29:32.162Z,70.81
2023-03-04T03:32:04.338Z,70.64
2023-03-04T03:34:34.227Z,70.48
2023-03-04T03:37:03.424Z,70.55
2023-03-04T03:39:32.869Z,70.35
2023-03-04T03:42:02.208Z,70.32
2023-03-04T03:44:30.814Z,70.32
2023-03-04T03:47:00.861Z,70.35
2023-03-04T03:49:30.449Z,70.41
2023-03-04T03:52:00.102Z,70.30
2023-03-04T03:54:28.572Z,70.53
2023-03-04T03:58:45.587Z,70.45
2023-03-04T04:01:14.905Z,70.54
2023-03-04T04:03:43.510Z,70.40
2023-03-04T04:06:12.274Z,70.42
2023-03-04T04:08:44.142Z,70.62
2023-03-04T04:11:13.199Z,70.46
2023-03-04T04:13:41.378Z,70.42
2023-03-04T04:16:12.420Z,70.69
2023-03-04T04:18:40.648Z,70.92
2023-03-04T04:21:10.652Z,71.16
2023-03-04T04:23:40.778Z,70.99
2023-03-04T04:26:09.504Z,71.00
2023-03-04T04:28:38.626Z,71.07
2023-03-04T04:31:09.327Z,70.99
2023-03-04T04:33:40.809Z,70.93
2023-03-04T04:36:12.949Z,70.80
2023-03-04T04:38:43.544Z,71.09
2023-03-04T04:41:38.655Z,71.32
2023-03-04T04:44:06.983Z,71.46
2023-03-04T04:46:37.832Z,71.42
2023-03-04T04:49:08.815Z,71.38
2023-03-04T04:51:40.001Z,71.46
2023-03-04T04:54:10.439Z,71.28
2023-03-04T04:56:39.449Z,71.39
2023-03-04T04:59:08.706Z,71.51
2023-03-04T05:01:37.489Z,71.65
2023-03-04T05:04:07.354Z,71.99
2023-03-04T05:06:35.679Z,72.18
2023-03-04T05:09:04.632Z,72.23
2023-03-04T05:11:33.066Z,72.37
2023-03-04T05:14:04.352Z,72.43
2023-03-04T05:16:33.924Z,72.68
2023-03-04T05:19:05.156Z,72.46
2023-03-04T05:21:33.899Z,72.57
2023-03-04T05:24:03.542Z,72.54
2023-03-04T05:26:35.420Z,72.70
2023-03-04T05:29:04.008Z,72.44
2023-03-04T05:31:32.892Z,72.41
2023-03-04T05:34:01.129Z,72.42
2023-03-04T05:36:29.527Z,72.32
2023-03-04T05:38:58.824Z,72.34
2023-03-04T05:41:27.880Z,72.36
2023-03-04T05:43:59.136Z,72.45
2023-03-04T05:46:32.420Z,72.81
2023-03-04T05:49:03.557Z,72.63
2023-03-04T05:51:31.759Z,72.69
2023-03-04T05:54:00.440Z,72.69
2023-03-04T05:56:30.587Z,72.65
2023-03-04T05:59:01.148Z,72.38
2023-03-04T06:01:33.915Z,72.33
2023-03-04T06:04:05.254Z,72.08
2023-03-04T06:06:33.799Z,72.12
2023-03-04T06:09:04.768Z,72.25
2023-03-04T06:11:35.256Z,72.17
2023-03-04T06:14:04.420Z,72.16
2023-03-04T06:16:33.068Z,72.36
2023-03-04T06:19:01.173Z,72.18
2023-03-04T06:21:29.673Z,72.03
2023-03-04T06:23:57.958Z,72.04
2023-03-04T06:26:26.075Z,72.08
2023-03-04T06:28:57.137Z,71.94
2023-03-04T06:31:25.596Z,71.85
2023-03-04T06:33:53.792Z,71.70
2023-03-04T06:36:23.478Z,71.68
2023-03-04T06:38:51.513Z,71.69
2023-03-04T06:41:26.561Z,71.50
2023-03-04T06:43:57.189Z,71.05
2023-03-04T06:46:30.406Z,70.35
2023-03-04T06:49:02.041Z,70.43
2023-03-04T06:51:31.731Z,70.35
2023-03-04T06:54:04.040Z,70.35
2023-03-04T06:56:36.387Z,70.55
2023-03-04T06:59:04.857Z,70.35
2023-03-04T07:01:36.719Z,70.67
2023-03-04T07:04:06.594Z,70.78
2023-03-04T07:06:34.844Z,70.75
2023-03-04T07:09:06.862Z,70.74
2023-03-04T07:11:35.700Z,70.59
2023-03-04T07:14:03.797Z,70.67
2023-03-04T07:16:33.219Z,70.95
2023-03-04T07:19:01.598Z,70.97
2023-03-04T07:21:34.225Z,71.01
2023-03-04T07:24:03.269Z,71.03
2023-03-04T07:26:31.393Z,70.67
2023-03-04T07:29:01.249Z,70.15
2023-03-04T07:31:31.573Z,69.80
2023-03-04T07:34:01.703Z,69.54
2023-03-04T07:36:31.691Z,69.58
2023-03-04T07:39:02.412Z,69.53
2023-03-04T07:41:31.372Z,69.44
2023-03-04T07:43:59.570Z,69.40
2023-03-04T07:46:29.086Z,69.50
2023-03-04T07:48:57.743Z,69.60
2023-03-04T07:51:33.130Z,69.52
2023-03-04T07:54:01.284Z,69.28
2023-03-04T07:56:31.582Z,68.74
2023-03-04T07:59:00.309Z,68.79
2023-03-04T08:01:35.667Z,68.64
2023-03-04T08:04:08.766Z,67.98
2023-03-04T08:06:37.425Z,67.35
2023-03-04T08:09:09.315Z,67.09
2023-03-04T08:11:46.363Z,67.21
2023-03-04T08:14:14.943Z,67.03
2023-03-04T08:16:48.461Z,66.55
2023-03-04T08:19:17.605Z,66.33
2023-03-04T08:21:45.727Z,66.26
2023-03-04T08:24:14.792Z,65.33
2023-03-04T08:26:45.765Z,65.34
2023-03-04T08:29:18.696Z,65.15
2023-03-04T08:31:49.083Z,64.64
2023-03-04T08:34:18.197Z,64.02
2023-03-04T08:36:51.763Z,63.80
2023-03-04T08:39:29.169Z,63.54
2023-03-04T08:41:57.499Z,63.16
2023-03-04T08:44:28.755Z,63.21
2023-03-04T08:47:02.184Z,63.08
2023-03-04T08:49:30.472Z,62.92
2023-03-04T08:52:04.526Z,62.52
2023-03-04T08:54:35.050Z,62.21
2023-03-04T08:57:04.732Z,62.06
2023-03-04T08:59:33.369Z,61.03
2023-03-04T09:02:01.581Z,60.77
2023-03-04T09:04:33.570Z,60.42
2023-03-04T09:07:01.986Z,59.52
2023-03-04T09:09:30.289Z,59.59
2023-03-04T09:11:59.912Z,59.00
2023-03-04T09:14:29.325Z,59.54
2023-03-04T09:17:02.750Z,59.49
2023-03-04T09:19:35.921Z,58.77
2023-03-04T09:22:06.018Z,58.53
2023-03-04T09:24:36.679Z,57.43
2023-03-04T09:27:09.155Z,56.27
2023-03-04T09:29:39.486Z,55.47
2023-03-04T09:32:07.835Z,54.52
2023-03-04T09:34:42.490Z,53.75
2023-03-04T09:37:10.605Z,53.00
2023-03-04T09:39:38.797Z,52.04
2023-03-04T09:42:10.473Z,51.61
2023-03-04T09:44:43.917Z,51.37
2023-03-04T09:47:16.768Z,51.95
2023-03-04T09:49:48.781Z,50.97
2023-03-04T09:52:39.012Z,50.81
2023-03-04T09:55:39.206Z,50.02
2023-03-04T09:58:25.777Z,49.49
2023-03-04T10:01:05.052Z,49.15
2023-03-04T10:03:48.403Z,49.27
2023-03-04T10:06:17.817Z,49.19
2023-03-04T10:09:28.443Z,48.90
2023-03-04T10:12:03.402Z,49.36
2023-03-04T10:14:45.880Z,48.81
2023-03-04T10:17:18.242Z,49.10
2023-03-04T10:20:31.410Z,49.03
2023-03-04T10:23:02.515Z,48.23
2023-03-04T10:25:32.084Z,48.12
2023-03-04T10:28:07.431Z,47.42
2023-03-04T10:31:02.227Z,47.56
2023-03-04T10:33:35.224Z,47.44
2023-03-04T10:36:14.985Z,47.79
2023-03-04T10:38:44.938Z,47.90
2023-03-04T10:41:14.441Z,47.62
2023-03-04T10:44:11.861Z,47.59
2023-03-04T10:46:41.092Z,47.04
2023-03-04T10:49:13.184Z,46.95
2023-03-04T10:51:45.808Z,47.12
2023-03-04T10:54:27.253Z,47.65
2023-03-04T10:57:01.275Z,47.45
2023-03-04T10:59:36.335Z,46.87
2023-03-04T11:02:28.357Z,46.92
2023-03-04T11:05:17.246Z,46.60
2023-03-04T11:07:57.447Z,46.02
2023-03-04T11:10:38.649Z,46.32
2023-03-04T11:13:11.597Z,46.48
2023-03-04T11:15:50.154Z,46.59
2023-03-04T11:18:20.823Z,46.77
2023-03-04T11:20:51.066Z,46.75
2023-03-04T11:23:21.533Z,47.01
2023-03-04T11:25:55.535Z,47.12
2023-03-04T11:28:35.141Z,46.97
2023-03-04T11:31:07.611Z,47.52
2023-03-04T11:33:55.646Z,47.83
2023-03-04T11:36:33.264Z,47.78
2023-03-04T11:39:03.219Z,47.19
2023-03-04T11:41:42.058Z,47.39
2023-03-04T11:44:11.639Z,47.65
2023-03-04T11:46:42.756Z,47.59
2023-03-04T11:49:22.784Z,47.48
2023-03-04T11:52:25.835Z,47.95
2023-03-04T11:55:06.519Z,47.42
2023-03-04T11:57:41.140Z,46.67
2023-03-04T12:00:29.626Z,46.14
2023-03-04T12:03:28.572Z,46.53
2023-03-04T12:06:11.374Z,46.48
2023-03-04T12:08:48.887Z,46.46
2023-03-04T12:11:53.099Z,46.19
2023-03-04T12:14:27.160Z,46.12
2023-03-04T12:17:09.744Z,46.32
2023-03-04T12:20:14.497Z,46.11
2023-03-04T12:22:57.019Z,46.60
2023-03-04T12:25:34.877Z,46.76
2023-03-04T12:28:31.975Z,46.82
2023-03-04T12:31:27.739Z,47.06
2023-03-04T12:34:28.037Z,47.42
2023-03-04T12:37:08.496Z,47.72
2023-03-04T12:39:53.531Z,47.90
2023-03-04T12:42:38.228Z,47.82
2023-03-04T12:45:48.544Z,47.13
2023-03-04T12:48:41.141Z,47.10
2023-03-04T12:51:21.030Z,47.44
2023-03-04T12:54:43.152Z,47.55
2023-03-04T12:57:14.125Z,47.11
2023-03-04T12:59:58.343Z,47.69
2023-03-04T13:02:35.386Z,48.17
2023-03-04T13:05:33.003Z,48.29
2023-03-04T13:08:37.087Z,48.44
2023-03-04T13:11:31.628Z,48.16
2023-03-04T13:14:06.524Z,48.17
2023-03-04T13:16:54.185Z,47.79
2023-03-04T13:20:12.057Z,47.95
2023-03-04T13:22:48.110Z,48.04
2023-03-04T13:25:36.051Z,47.89
2023-03-04T13:28:15.029Z,47.59
2023-03-04T13:30:59.666Z,47.24
2023-03-04T13:33:41.402Z,47.23
2023-03-04T13:36:34.216Z,47.24
2023-03-04T13:39:18.748Z,46.80
2023-03-04T13:41:53.793Z,46.59
2023-03-04T13:44:46.764Z,46.40
2023-03-04T13:47:17.410Z,46.89
2023-03-04T13:49:50.631Z,47.13
2023-03-04T13:52:38.324Z,46.95
2023-03-04T13:55:32.159Z,46.98
2023-03-04T13:58:11.583Z,46.92
2023-03-04T14:00:50.587Z,46.91
2023-03-04T14:03:26.563Z,47.04
2023-03-04T14:06:10.305Z,46.55
2023-03-04T14:08:38.574Z,44.78
2023-03-04T14:11:13.103Z,43.74
2023-03-04T14:13:41.428Z,43.17
2023-03-04T14:16:13.802Z,42.99
2023-03-04T14:18:42.688Z,42.86
2023-03-04T14:21:14.178Z,43.38
2023-03-04T14:23:42.987Z,43.13
2023-03-04T14:26:18.275Z,43.61
2023-03-04T14:28:47.883Z,43.69
2023-03-04T14:31:20.581Z,42.74
2023-03-04T14:33:50.694Z,42.78
2023-03-04T14:36:21.286Z,42.59
2023-03-04T14:38:54.304Z,42.62
2023-03-04T14:41:31.777Z,42.59
2023-03-04T14:44:05.793Z,42.67
2023-03-04T14:46:44.192Z,43.49
2023-03-04T14:49:14.688Z,44.26
2023-03-04T14:51:48.141Z,43.79
2023-03-04T14:54:37.789Z,43.62
2023-03-04T14:57:26.568Z,43.24
2023-03-04T14:59:57.326Z,43.53
2023-03-04T15:02:37.903Z,43.76
2023-03-04T15:05:28.292Z,44.02
2023-03-04T15:08:27.818Z,44.18
2023-03-04T15:11:00.595Z,43.98
2023-03-04T15:13:41.898Z,43.99
2023-03-04T15:16:12.086Z,43.81
2023-03-04T15:18:54.882Z,43.89
2023-03-04T15:21:43.034Z,44.18
2023-03-04T15:24:15.693Z,44.41
2023-03-04T15:26:46.174Z,44.69
2023-03-04T15:29:15.772Z,44.40
2023-03-04T15:31:44.715Z,44.62
2023-03-04T15:34:16.812Z,44.79
2023-03-04T15:36:46.737Z,44.86
2023-03-04T15:39:15.350Z,44.78
2023-03-04T15:41:48.504Z,44.74
2023-03-04T15:44:19.166Z,44.54
2023-03-04T15:46:47.343Z,44.60
2023-03-04T15:49:15.480Z,44.61
2023-03-04T15:51:44.573Z,44.76
2023-03-04T15:54:18.705Z,44.87
2023-03-04T15:56:47.013Z,45.34
2023-03-04T15:59:15.972Z,45.55
2023-03-04T16:01:45.144Z,45.93
2023-03-04T16:04:15.876Z,46.31
2023-03-04T16:06:44.975Z,46.43
2023-03-04T16:09:15.207Z,46.72
2023-03-04T16:11:45.704Z,47.06
2023-03-04T16:16:19.568Z,47.51
2023-03-04T16:18:48.538Z,47.61
2023-03-04T16:21:19.205Z,47.92
2023-03-04T16:23:48.472Z,48.06
2023-03-04T16:26:21.598Z,48.38
2023-03-04T16:28:55.952Z,48.54
2023-03-04T16:31:25.451Z,48.65
2023-03-04T16:34:01.352Z,49.67
2023-03-04T16:36:31.345Z,53.19
2023-03-04T16:39:03.736Z,54.88
2023-03-04T16:41:37.346Z,56.35
2023-03-04T16:44:09.369Z,57.57
2023-03-04T16:46:44.763Z,59.03
2023-03-04T16:49:13.720Z,59.73
2023-03-04T16:51:47.324Z,60.36
2023-03-04T16:54:25.770Z,60.79
2023-03-04T16:56:54.814Z,61.36
2023-03-04T16:59:27.221Z,61.90
2023-03-04T17:01:56.191Z,62.23
2023-03-04T17:04:30.948Z,62.61
2023-03-04T17:07:04.083Z,62.85
2023-03-04T17:09:32.433Z,62.89
2023-03-04T17:12:03.410Z,62.94
2023-03-04T17:14:37.313Z,63.02
2023-03-04T17:17:07.101Z,63.33
2023-03-04T17:19:36.440Z,63.45
2023-03-04T17:22:05.029Z,63.61
2023-03-04T17:24:34.146Z,63.55
2023-03-04T17:27:08.486Z,63.77
2023-03-04T17:29:42.683Z,64.03
2023-03-04T17:32:11.936Z,64.15
2023-03-04T17:34:43.229Z,64.20
2023-03-04T17:37:11.562Z,64.08
2023-03-04T17:39:42.372Z,63.89
2023-03-04T17:42:10.850Z,63.76
2023-03-04T17:44:41.365Z,63.63
2023-03-04T17:47:09.588Z,63.56
2023-03-04T17:49:38.563Z,63.55
2023-03-04T17:52:09.216Z,63.65
2023-03-04T17:54:38.156Z,63.54
2023-03-04T17:57:07.341Z,63.56
2023-03-04T17:59:35.739Z,63.55
2023-03-04T18:02:05.337Z,63.35
2023-03-04T18:04:34.669Z,63.35
2023-03-04T18:07:03.300Z,63.46
2023-03-04T18:09:33.644Z,63.65
2023-03-04T18:12:01.717Z,63.71
2023-03-04T18:14:30.489Z,63.45
2023-03-04T18:16:58.704Z,63.20
2023-03-04T18:19:27.616Z,63.03
2023-03-04T18:22:01.268Z,62.92
2023-03-04T18:24:33.079Z,62.96
2023-03-04T18:27:04.076Z,63.00
2023-03-04T18:29:35.956Z,63.12
2023-03-04T18:32:05.151Z,63.14
2023-03-04T18:34:33.614Z,63.19
2023-03-04T18:37:01.812Z,63.34
2023-03-04T18:39:31.869Z,63.41
2023-03-04T18:42:00.989Z,63.33
2023-03-04T18:44:29.574Z,63.50
2023-03-04T18:46:58.657Z,63.59
2023-03-04T18:49:27.495Z,63.51
2023-03-04T18:51:55.672Z,63.36
2023-03-04T18:54:25.020Z,63.40
2023-03-04T18:56:55.679Z,63.34
2023-03-04T18:59:33.588Z,63.36
2023-03-04T19:02:02.797Z,63.23
2023-03-04T19:04:35.209Z,63.28
2023-03-04T19:07:04.352Z,63.18
2023-03-04T19:09:32.890Z,63.10
2023-03-04T19:12:02.195Z,63.11
2023-03-04T19:14:34.487Z,63.25
2023-03-04T19:17:03.483Z,63.30
2023-03-04T19:19:33.074Z,63.33
2023-03-04T19:22:01.498Z,63.33
2023-03-04T19:24:30.307Z,63.34
2023-03-04T19:27:01.880Z,63.29
2023-03-04T19:29:30.175Z,63.30
2023-03-04T19:32:03.264Z,63.07
2023-03-04T19:34:31.587Z,62.94
2023-03-04T19:37:00.468Z,62.86
2023-03-04T19:39:32.364Z,62.66
2023-03-04T19:42:00.538Z,62.64
2023-03-04T19:44:28.653Z,62.76
2023-03-04T19:46:57.322Z,62.62
2023-03-04T19:49:27.661Z,62.54
2023-03-04T19:51:58.118Z,62.98
2023-03-04T19:54:28.442Z,62.96
2023-03-04T19:56:58.466Z,63.09
2023-03-04T19:59:29.612Z,63.34
2023-03-04T20:02:01.777Z,63.50
2023-03-04T20:04:36.416Z,63.59
2023-03-04T20:07:06.933Z,63.86
2023-03-04T20:09:42.882Z,63.83
2023-03-04T20:12:13.073Z,63.83
2023-03-04T20:14:43.782Z,63.78
2023-03-04T20:17:12.477Z,63.76
2023-03-04T20:19:40.836Z,63.60
2023-03-04T20:22:09.330Z,63.66
2023-03-04T20:24:39.305Z,63.59
2023-03-04T20:27:08.554Z,63.58
2023-03-04T20:29:38.505Z,63.74
2023-03-04T20:32:07.367Z,63.70
2023-03-04T20:34:37.645Z,63.72
2023-03-04T20:37:05.864Z,63.62
2023-03-04T20:39:34.081Z,63.63
2023-03-04T20:42:03.324Z,63.73
2023-03-04T20:44:32.611Z,63.80
2023-03-04T20:47:00.830Z,63.75
2023-03-04T20:49:29.426Z,63.85
2023-03-04T20:52:03.330Z,63.72
2023-03-04T20:54:40.926Z,63.59
2023-03-04T20:57:12.858Z,63.45
2023-03-04T20:59:41.288Z,63.37
2023-03-04T21:02:13.422Z,63.28
2023-03-04T21:04:44.092Z,63.17
2023-03-04T21:07:12.462Z,63.15
2023-03-04T21:09:44.941Z,63.16
2023-03-04T21:12:13.136Z,63.18
2023-03-04T21:14:45.199Z,62.98
2023-03-04T21:17:13.748Z,63.05
2023-03-04T21:19:43.476Z,63.26
2023-03-04T21:22:16.223Z,63.12
2023-03-04T21:24:45.032Z,63.13
2023-03-04T21:27:16.835Z,63.13
2023-03-04T21:29:46.244Z,63.16
2023-03-04T21:32:24.269Z,63.12
2023-03-04T21:34:54.258Z,63.17
2023-03-04T21:37:23.837Z,63.18
2023-03-04T21:39:55.252Z,63.05
2023-03-04T21:42:23.982Z,62.72
2023-03-04T21:44:57.475Z,62.60
2023-03-04T21:47:25.757Z,62.29
2023-03-04T21:49:54.023Z,62.36
2023-03-04T21:52:22.289Z,62.17
2023-03-04T21:54:51.266Z,61.99
2023-03-04T21:57:19.731Z,61.90
2023-03-04T21:59:48.494Z,61.88
2023-03-04T22:02:18.948Z,61.59
2023-03-04T22:04:48.021Z,61.28
2023-03-04T22:07:16.310Z,61.28
2023-03-04T22:09:50.102Z,61.05
2023-03-04T22:12:21.487Z,60.84
2023-03-04T22:14:49.608Z,60.70
2023-03-04T22:17:17.889Z,60.78
2023-03-04T22:19:46.909Z,60.75
2023-03-04T22:22:18.150Z,60.54
2023-03-04T22:24:47.649Z,60.46
2023-03-04T22:27:15.939Z,60.37
2023-03-04T22:29:44.497Z,60.52
2023-03-04T22:32:15.601Z,60.51
2023-03-04T22:34:46.764Z,60.59
2023-03-04T22:37:15.404Z,60.55
2023-03-04T22:39:43.555Z,60.78
2023-03-04T22:42:12.639Z,60.50
2023-03-04T22:50:48.270Z,58.83
2023-03-04T22:53:16.726Z,58.60
2023-03-04T22:55:45.334Z,58.28
2023-03-04T22:58:18.350Z,58.00
2023-03-04T23:00:46.465Z,57.78
2023-03-04T23:03:17.103Z,57.88
2023-03-04T23:05:46.882Z,57.72
2023-03-04T23:08:16.139Z,57.56
2023-03-04T23:10:44.703Z,57.38
2023-03-04T23:13:12.888Z,57.49
2023-03-04T23:15:41.363Z,57.62
2023-03-04T23:18:10.327Z,57.83
2023-03-04T23:20:42.348Z,58.06
2023-03-04T23:23:12.829Z,58.27
2023-03-04T23:25:41.342Z,58.44
2023-03-04T23:28:14.942Z,58.55
2023-03-04T23:30:44.164Z,58.74
2023-03-04T23:33:12.810Z,59.02
2023-03-04T23:35:42.910Z,59.37
2023-03-04T23:38:11.253Z,59.68
2023-03-04T23:40:39.376Z,59.78
2023-03-04T23:43:07.792Z,60.03
2023-03-04T23:45:40.616Z,60.30
2023-03-04T23:48:09.115Z,60.56
2023-03-04T23:50:38.294Z,60.84
2023-03-04T23:53:07.655Z,60.90
2023-03-04T23:55:35.928Z,60.92
2023-03-04T23:58:04.471Z,61.00
